SCIE/CCP METAR and TAF weather

Enter ICAO airport designator
Station Type Date Time Source
SCIE METAR 2021/10/24 23:00 UTC NOAA

SCIE 242300Z 23012KT CAVOK 15/11 Q1021


Station Type Date Time Source
SCIE Decoded METAR 2021/10/24 23:00 UTC NOAA

Concepcion, Chile (SCIE) 36-46S 073-03W
Oct 24, 2021 - 07:00 PM EDT / 2021.10.24 2300 UTC
Wind: from the SW (230 degrees) at 14 MPH (12 KT):0
Visibility: greater than 7 mile(s):0
Temperature: 59 F (15 C)
Dew Point: 51 F (11 C)
Relative Humidity: 76%
Pressure (altimeter): 30.15 in. Hg (1021 hPa)
ob: SCIE 242300Z 23012KT CAVOK 15/11 Q1021
cycle: 23

Station Type Date Time Source
SCIE TAF 2021/10/24 18:03 UTC NOAA

TAF SCIE 241610Z 2418/2518 23015KT CAVOK TX18/2418Z TN08/2510Z
BECMG 2502/2504 20006KT
TEMPO 2506/2512 17004KT 6000 SCT010
BECMG 2514/2516 21010KT

Example: see airport list